Time;durP1;ratioP1;P1;durP2;ratioP2;P2;SDS_P1;SDS_P2;PMS_P1;PMS_P2;Temp;Humidity;BMP_temperature;BMP_pressure;BME280_temperature;BME280_humidity;BME280_pressure;Samples;Min_cycle;Max_cycle;Signal;HPM_P1;HPM_P2
2021/06/15 00:01:05;;;;;;;;;;;21.60;50.70;;;;;;491461;241;1148;-45
2021/06/15 00:03:06;;;;;;;;;;;21.60;50.70;;;;;;491370;241;1117;-45
2021/06/15 00:05:09;;;;;;;;;;;21.60;50.60;;;;;;491346;241;1041;-45
2021/06/15 00:07:09;;;;;;;;;;;21.60;50.60;;;;;;491708;241;1564;-45
2021/06/15 00:09:10;;;;;;;;;;;21.70;50.70;;;;;;491323;241;1061;-45
2021/06/15 00:11:12;;;;;;;;;;;21.70;50.70;;;;;;491268;241;2149;-45
2021/06/15 00:13:13;;;;;;;;;;;21.70;50.70;;;;;;491325;241;1061;-45
2021/06/15 00:15:15;;;;;;;;;;;21.70;50.60;;;;;;491322;241;1265;-45
2021/06/15 00:17:16;;;;;;;;;;;21.70;50.60;;;;;;491741;241;1285;-45
2021/06/15 00:19:17;;;;;;;;;;;21.70;50.60;;;;;;491578;241;1217;-45
2021/06/15 00:21:18;;;;;;;;;;;21.70;50.60;;;;;;491819;241;1031;-45
2021/06/15 00:23:19;;;;;;;;;;;21.80;50.50;;;;;;491660;241;1119;-45
2021/06/15 00:25:21;;;;;;;;;;;21.80;50.50;;;;;;491743;241;1050;-45
2021/06/15 00:27:23;;;;;;;;;;;21.80;50.60;;;;;;491403;241;1026;-45
2021/06/15 00:29:23;;;;;;;;;;;21.80;50.60;;;;;;491460;241;2068;-45
2021/06/15 00:31:27;;;;;;;;;;;21.80;50.50;;;;;;491210;241;2184;-45
2021/06/15 00:33:26;;;;;;;;;;;21.80;50.40;;;;;;491341;241;2366;-45
2021/06/15 00:35:28;;;;;;;;;;;21.80;50.40;;;;;;491344;241;1060;-45
2021/06/15 00:37:29;;;;;;;;;;;21.90;50.40;;;;;;491291;241;1186;-45
2021/06/15 00:39:31;;;;;;;;;;;21.90;50.40;;;;;;491301;241;1061;-44
2021/06/15 00:41:32;;;;;;;;;;;21.90;50.40;;;;;;491228;241;1196;-45
2021/06/15 00:43:33;;;;;;;;;;;21.90;50.30;;;;;;491296;241;1247;-45
2021/06/15 00:45:34;;;;;;;;;;;21.90;50.30;;;;;;491666;241;1292;-45
2021/06/15 00:47:36;;;;;;;;;;;21.90;50.30;;;;;;491365;241;1201;-45
2021/06/15 00:49:37;;;;;;;;;;;21.90;50.30;;;;;;491317;241;1089;-45
2021/06/15 00:51:38;;;;;;;;;;;21.90;50.30;;;;;;491234;241;2204;-45
2021/06/15 00:53:40;;;;;;;;;;;21.90;50.30;;;;;;491520;241;1169;-45
2021/06/15 00:55:41;;;;;;;;;;;22.00;50.30;;;;;;491734;241;1057;-45
2021/06/15 00:57:42;;;;;;;;;;;22.00;50.30;;;;;;491476;241;1177;-45
2021/06/15 00:59:44;;;;;;;;;;;21.90;50.20;;;;;;491310;241;1038;-45
2021/06/15 01:01:45;;;;;;;;;;;22.00;50.30;;;;;;491390;241;1246;-45
2021/06/15 01:03:46;;;;;;;;;;;22.00;50.30;;;;;;491491;241;1066;-45
2021/06/15 01:05:48;;;;;;;;;;;22.00;50.30;;;;;;491410;241;1069;-45
2021/06/15 01:07:49;;;;;;;;;;;22.00;50.20;;;;;;491203;241;1522;-45
2021/06/15 01:09:51;;;;;;;;;;;22.00;50.10;;;;;;491787;241;1058;-45
2021/06/15 01:11:52;;;;;;;;;;;22.00;50.20;;;;;;491518;241;2141;-45
2021/06/15 01:13:53;;;;;;;;;;;22.00;50.20;;;;;;491257;241;1065;-45
2021/06/15 01:15:55;;;;;;;;;;;22.00;50.20;;;;;;491670;241;1270;-45
2021/06/15 01:17:57;;;;;;;;;;;22.10;50.20;;;;;;491649;241;1398;-45
2021/06/15 01:19:58;;;;;;;;;;;22.00;50.10;;;;;;491622;241;1034;-45
2021/06/15 01:21:59;;;;;;;;;;;22.00;50.20;;;;;;491294;241;1346;-45
2021/06/15 01:24:01;;;;;;;;;;;22.10;50.20;;;;;;491302;241;1099;-45
2021/06/15 01:26:02;;;;;;;;;;;22.10;50.10;;;;;;491747;241;1318;-45
2021/06/15 01:28:03;;;;;;;;;;;22.10;50.10;;;;;;491722;241;1055;-45
2021/06/15 01:30:05;;;;;;;;;;;22.10;50.20;;;;;;491282;241;1046;-45
2021/06/15 01:32:06;;;;;;;;;;;22.10;50.20;;;;;;491331;241;2109;-45
2021/06/15 01:34:07;;;;;;;;;;;22.10;50.30;;;;;;491412;241;1122;-45
2021/06/15 01:36:09;;;;;;;;;;;22.10;50.10;;;;;;491247;241;1375;-45
2021/06/15 01:38:10;;;;;;;;;;;22.00;50.30;;;;;;491517;241;1062;-45
2021/06/15 01:40:14;;;;;;;;;;;21.70;51.10;;;;;;491222;241;1111;-45
2021/06/15 01:42:15;;;;;;;;;;;21.30;52.10;;;;;;491474;241;1186;-45
2021/06/15 01:44:16;;;;;;;;;;;21.00;52.80;;;;;;491646;241;1104;-45
2021/06/15 01:46:17;;;;;;;;;;;20.90;53.40;;;;;;491512;241;1204;-45
2021/06/15 01:48:20;;;;;;;;;;;20.70;53.70;;;;;;491280;241;1074;-45
2021/06/15 01:50:21;;;;;;;;;;;20.60;53.90;;;;;;491254;241;1960;-44
2021/06/15 01:52:21;;;;;;;;;;;20.50;54.20;;;;;;491165;241;2200;-45
2021/06/15 01:54:23;;;;;;;;;;;20.50;54.40;;;;;;491286;241;1084;-45
2021/06/15 01:56:24;;;;;;;;;;;20.50;54.50;;;;;;491170;241;1328;-45
2021/06/15 01:58:25;;;;;;;;;;;20.40;54.70;;;;;;491738;241;1077;-45
2021/06/15 02:00:27;;;;;;;;;;;20.40;54.80;;;;;;491759;241;1042;-45
2021/06/15 02:02:28;;;;;;;;;;;20.30;54.90;;;;;;491283;241;1149;-45
2021/06/15 02:04:29;;;;;;;;;;;20.30;55.00;;;;;;491513;241;1015;-45
2021/06/15 02:06:31;;;;;;;;;;;20.30;55.10;;;;;;491686;241;1252;-45
2021/06/15 02:08:32;;;;;;;;;;;20.20;55.20;;;;;;491743;241;1204;-45
2021/06/15 02:10:33;;;;;;;;;;;20.20;55.30;;;;;;491683;241;1549;-45
2021/06/15 02:12:40;;;;;;;;;;;20.20;55.30;;;;;;491332;241;2137;-45
2021/06/15 02:14:37;;;;;;;;;;;20.10;55.30;;;;;;491280;241;2205;-45
2021/06/15 02:16:38;;;;;;;;;;;20.10;55.40;;;;;;491249;241;1311;-45
2021/06/15 02:18:39;;;;;;;;;;;20.10;55.40;;;;;;491355;241;1432;-45
2021/06/15 02:20:41;;;;;;;;;;;20.10;55.40;;;;;;491752;241;1045;-45
2021/06/15 02:22:42;;;;;;;;;;;20.10;55.50;;;;;;491512;241;1135;-45
2021/06/15 02:24:44;;;;;;;;;;;20.00;55.50;;;;;;491787;241;1078;-45
2021/06/15 02:26:45;;;;;;;;;;;20.00;55.60;;;;;;491425;241;1019;-45
2021/06/15 02:28:46;;;;;;;;;;;20.00;55.60;;;;;;491659;241;1199;-45
2021/06/15 02:30:47;;;;;;;;;;;20.00;55.70;;;;;;491348;241;2165;-45
2021/06/15 02:32:49;;;;;;;;;;;20.00;55.60;;;;;;491538;241;1258;-45
2021/06/15 02:34:50;;;;;;;;;;;20.00;55.70;;;;;;491733;241;1093;-45
2021/06/15 02:36:51;;;;;;;;;;;20.00;55.70;;;;;;491758;241;1040;-45
2021/06/15 02:38:53;;;;;;;;;;;20.00;55.70;;;;;;491797;241;1193;-45
2021/06/15 02:40:54;;;;;;;;;;;20.00;55.80;;;;;;491525;241;1198;-44
2021/06/15 02:42:55;;;;;;;;;;;20.00;55.70;;;;;;491473;241;980;-45
2021/06/15 02:44:57;;;;;;;;;;;20.00;55.80;;;;;;491424;241;1057;-44
2021/06/15 02:46:58;;;;;;;;;;;19.90;55.80;;;;;;491277;241;1270;-45
2021/06/15 02:48:59;;;;;;;;;;;19.90;55.80;;;;;;491427;241;1151;-45
2021/06/15 02:51:01;;;;;;;;;;;19.90;55.90;;;;;;491265;241;2209;-45
2021/06/15 02:53:02;;;;;;;;;;;19.90;55.90;;;;;;491676;241;1213;-45
2021/06/15 02:55:03;;;;;;;;;;;19.90;55.90;;;;;;491338;241;1170;-45
2021/06/15 02:57:05;;;;;;;;;;;19.80;56.00;;;;;;491185;241;1202;-45
2021/06/15 02:59:06;;;;;;;;;;;19.80;56.00;;;;;;491334;241;1049;-45
2021/06/15 03:01:08;;;;;;;;;;;19.80;56.10;;;;;;491263;241;1141;-45
2021/06/15 03:03:09;;;;;;;;;;;19.80;56.10;;;;;;491523;241;1149;-45
2021/06/15 03:05:10;;;;;;;;;;;19.80;56.10;;;;;;491782;241;1074;-45
2021/06/15 03:07:12;;;;;;;;;;;19.80;56.10;;;;;;491267;241;1273;-45
2021/06/15 03:09:13;;;;;;;;;;;19.80;56.10;;;;;;491695;241;1039;-45
2021/06/15 03:11:14;;;;;;;;;;;19.80;56.20;;;;;;491521;241;2133;-45
2021/06/15 03:13:16;;;;;;;;;;;19.80;56.20;;;;;;491430;241;1039;-45
2021/06/15 03:15:19;;;;;;;;;;;19.70;56.20;;;;;;491670;241;2460;-45
2021/06/15 03:17:18;;;;;;;;;;;19.80;56.20;;;;;;491556;241;2213;-45
2021/06/15 03:19:20;;;;;;;;;;;19.80;56.10;;;;;;491347;241;1036;-45
2021/06/15 03:21:21;;;;;;;;;;;19.80;56.20;;;;;;491447;241;1117;-45
2021/06/15 03:23:22;;;;;;;;;;;19.70;56.20;;;;;;491791;241;1159;-45
2021/06/15 03:25:24;;;;;;;;;;;19.70;56.30;;;;;;491329;241;1048;-45
2021/06/15 03:27:25;;;;;;;;;;;19.70;56.20;;;;;;491422;241;1156;-45
2021/06/15 03:29:27;;;;;;;;;;;19.70;56.30;;;;;;491558;241;1084;-45
2021/06/15 03:31:28;;;;;;;;;;;19.70;56.30;;;;;;491728;241;2129;-45
2021/06/15 03:33:29;;;;;;;;;;;19.70;56.20;;;;;;491527;241;1229;-45
2021/06/15 03:35:31;;;;;;;;;;;19.70;56.20;;;;;;491315;241;1071;-45
2021/06/15 03:37:32;;;;;;;;;;;19.70;56.30;;;;;;491508;241;1177;-45
2021/06/15 03:39:33;;;;;;;;;;;19.70;56.30;;;;;;491345;241;1147;-45
2021/06/15 03:41:35;;;;;;;;;;;19.70;56.30;;;;;;491306;241;1211;-45
2021/06/15 03:43:36;;;;;;;;;;;19.70;56.20;;;;;;491344;241;1054;-45
2021/06/15 03:45:37;;;;;;;;;;;19.70;56.30;;;;;;491300;241;1050;-45
2021/06/15 03:47:39;;;;;;;;;;;19.70;56.30;;;;;;491712;241;1687;-45
2021/06/15 03:49:40;;;;;;;;;;;19.60;56.20;;;;;;491803;241;1109;-45
2021/06/15 03:51:41;;;;;;;;;;;19.70;56.40;;;;;;491728;241;2195;-45
2021/06/15 03:53:43;;;;;;;;;;;19.60;56.30;;;;;;491706;241;1063;-45
2021/06/15 03:55:44;;;;;;;;;;;19.60;56.30;;;;;;491471;241;1171;-45
2021/06/15 03:57:46;;;;;;;;;;;19.60;56.30;;;;;;491313;241;1132;-45
2021/06/15 03:59:46;;;;;;;;;;;19.60;56.30;;;;;;491758;241;1433;-45
2021/06/15 04:01:50;;;;;;;;;;;19.60;56.30;;;;;;491560;241;1439;-45
2021/06/15 04:03:49;;;;;;;;;;;19.60;56.40;;;;;;491383;241;2285;-45
2021/06/15 04:05:53;;;;;;;;;;;19.60;56.30;;;;;;491394;241;1061;-45
2021/06/15 04:07:53;;;;;;;;;;;19.60;56.30;;;;;;491659;241;1807;-45
2021/06/15 04:09:54;;;;;;;;;;;19.60;56.30;;;;;;491681;241;1040;-45
2021/06/15 04:11:55;;;;;;;;;;;19.60;56.30;;;;;;491308;241;2137;-45
2021/06/15 04:13:57;;;;;;;;;;;19.60;56.30;;;;;;491294;241;1054;-45
2021/06/15 04:15:58;;;;;;;;;;;19.60;56.30;;;;;;491554;241;1108;-45
2021/06/15 04:17:59;;;;;;;;;;;19.60;56.30;;;;;;491198;241;1161;-45
2021/06/15 04:20:01;;;;;;;;;;;19.60;56.20;;;;;;491213;241;1082;-45
2021/06/15 04:22:02;;;;;;;;;;;19.60;56.30;;;;;;491177;241;1118;-45
2021/06/15 04:24:03;;;;;;;;;;;19.60;56.30;;;;;;491261;241;1161;-45
2021/06/15 04:26:05;;;;;;;;;;;19.60;56.40;;;;;;491297;241;1094;-45
2021/06/15 04:28:06;;;;;;;;;;;19.60;56.30;;;;;;491209;241;1118;-45
2021/06/15 04:30:07;;;;;;;;;;;19.60;56.30;;;;;;491333;241;1046;-45
2021/06/15 04:32:09;;;;;;;;;;;19.60;56.40;;;;;;491148;241;2153;-45
2021/06/15 04:34:10;;;;;;;;;;;19.60;56.20;;;;;;491207;241;1148;-45
2021/06/15 04:36:11;;;;;;;;;;;19.60;56.30;;;;;;491478;241;1116;-45
2021/06/15 04:38:13;;;;;;;;;;;19.60;56.30;;;;;;491346;241;1145;-45
2021/06/15 04:40:14;;;;;;;;;;;19.60;56.30;;;;;;491193;241;1107;-45
2021/06/15 04:42:15;;;;;;;;;;;19.60;56.40;;;;;;491045;241;1295;-45
2021/06/15 04:44:17;;;;;;;;;;;19.60;56.30;;;;;;491068;241;1775;-45
2021/06/15 04:46:18;;;;;;;;;;;19.60;56.30;;;;;;490938;242;1166;-45
2021/06/15 04:48:19;;;;;;;;;;;19.60;56.40;;;;;;490914;241;1221;-45
2021/06/15 04:50:21;;;;;;;;;;;19.60;56.40;;;;;;490896;241;1200;-45
2021/06/15 04:52:22;;;;;;;;;;;19.50;56.30;;;;;;490918;241;2181;-45
2021/06/15 04:54:23;;;;;;;;;;;19.60;56.40;;;;;;491017;241;1082;-45
2021/06/15 04:56:25;;;;;;;;;;;19.50;56.40;;;;;;490850;241;1346;-45
2021/06/15 04:58:26;;;;;;;;;;;19.50;56.40;;;;;;491096;241;1099;-45
2021/06/15 05:00:27;;;;;;;;;;;19.50;56.50;;;;;;491157;241;1099;-45
2021/06/15 05:02:29;;;;;;;;;;;19.50;56.50;;;;;;490973;241;1432;-45
2021/06/15 05:04:30;;;;;;;;;;;19.50;56.40;;;;;;490986;241;1186;-45
2021/06/15 05:06:31;;;;;;;;;;;19.60;56.40;;;;;;490984;241;1349;-45
2021/06/15 05:08:33;;;;;;;;;;;19.50;56.40;;;;;;491134;241;1244;-45
2021/06/15 05:10:34;;;;;;;;;;;19.50;56.40;;;;;;491444;241;1145;-45
2021/06/15 05:12:36;;;;;;;;;;;19.50;56.50;;;;;;491223;241;2229;-45
2021/06/15 05:14:37;;;;;;;;;;;19.50;56.50;;;;;;491083;241;2187;-45
2021/06/15 05:16:38;;;;;;;;;;;19.50;56.50;;;;;;490962;241;1077;-45
2021/06/15 05:18:40;;;;;;;;;;;19.50;56.50;;;;;;491001;241;1087;-45
2021/06/15 05:20:42;;;;;;;;;;;19.50;56.50;;;;;;490962;241;1237;-45
2021/06/15 05:22:43;;;;;;;;;;;19.50;56.50;;;;;;491073;241;1168;-45
2021/06/15 05:24:45;;;;;;;;;;;19.50;56.50;;;;;;491021;241;1115;-45
2021/06/15 05:26:46;;;;;;;;;;;19.50;56.50;;;;;;490901;241;1813;-45
2021/06/15 05:28:47;;;;;;;;;;;19.50;56.50;;;;;;490787;241;1149;-45
2021/06/15 05:30:49;;;;;;;;;;;19.50;56.50;;;;;;490779;241;1192;-45
2021/06/15 05:32:50;;;;;;;;;;;19.40;56.60;;;;;;491193;241;2208;-45
2021/06/15 05:34:51;;;;;;;;;;;19.50;56.50;;;;;;491072;241;1301;-44
2021/06/15 05:36:53;;;;;;;;;;;19.50;56.50;;;;;;490905;241;1267;-45
2021/06/15 05:38:54;;;;;;;;;;;19.50;56.50;;;;;;491091;241;1087;-45
2021/06/15 05:40:55;;;;;;;;;;;19.40;56.40;;;;;;490895;241;1203;-44
2021/06/15 05:42:57;;;;;;;;;;;19.50;56.50;;;;;;491074;241;1118;-45
2021/06/15 05:44:58;;;;;;;;;;;19.50;56.60;;;;;;491227;241;1060;-45
2021/06/15 05:46:59;;;;;;;;;;;19.40;56.50;;;;;;490838;241;1096;-45
2021/06/15 05:49:01;;;;;;;;;;;19.50;56.60;;;;;;490725;241;1130;-45
2021/06/15 05:51:02;;;;;;;;;;;19.50;56.50;;;;;;490700;241;1311;-45
2021/06/15 05:53:03;;;;;;;;;;;19.40;56.50;;;;;;490597;241;2188;-45
2021/06/15 05:55:05;;;;;;;;;;;19.40;56.50;;;;;;490459;241;1337;-45
2021/06/15 05:57:06;;;;;;;;;;;19.50;56.50;;;;;;490676;241;1126;-45
2021/06/15 05:59:07;;;;;;;;;;;19.50;56.50;;;;;;490902;241;1329;-45
2021/06/15 06:01:09;;;;;;;;;;;19.40;56.60;;;;;;490780;241;1334;-45
2021/06/15 06:03:11;;;;;;;;;;;19.50;56.50;;;;;;490935;241;1166;-45
2021/06/15 06:09:51;;;;;;;;;;;19.50;56.50;;;;;;490759;242;1065;-45
2021/06/15 06:11:52;;;;;;;;;;;19.50;56.60;;;;;;490700;241;1220;-45
2021/06/15 06:13:53;;;;;;;;;;;19.40;56.60;;;;;;490774;241;2124;-45
2021/06/15 06:15:55;;;;;;;;;;;19.40;56.50;;;;;;490968;241;1137;-45
2021/06/15 06:17:56;;;;;;;;;;;19.40;56.50;;;;;;490772;241;2397;-45
2021/06/15 06:19:57;;;;;;;;;;;19.40;56.60;;;;;;490756;241;1193;-45
2021/06/15 06:21:59;;;;;;;;;;;19.40;56.50;;;;;;490715;241;1428;-45
2021/06/15 06:24:00;;;;;;;;;;;19.40;56.50;;;;;;491436;235;1121;-45
2021/06/15 06:26:01;;;;;;;;;;;19.40;56.60;;;;;;490440;241;1389;-45
2021/06/15 06:28:03;;;;;;;;;;;19.40;56.50;;;;;;490398;241;1289;-45
2021/06/15 06:30:04;;;;;;;;;;;19.50;56.50;;;;;;490415;241;1332;-45
2021/06/15 06:32:05;;;;;;;;;;;19.40;56.50;;;;;;490470;241;1296;-45
2021/06/15 06:34:07;;;;;;;;;;;19.40;56.50;;;;;;490568;241;2128;-45
2021/06/15 06:36:08;;;;;;;;;;;19.40;56.40;;;;;;490466;241;1338;-45
2021/06/15 06:38:09;;;;;;;;;;;19.50;56.60;;;;;;490687;241;1296;-45
2021/06/15 06:40:11;;;;;;;;;;;19.40;56.50;;;;;;490777;241;1078;-45
2021/06/15 06:42:13;;;;;;;;;;;19.40;56.50;;;;;;490599;241;1300;-45
2021/06/15 06:44:14;;;;;;;;;;;19.40;56.60;;;;;;490689;241;1870;-45
2021/06/15 06:46:15;;;;;;;;;;;19.40;56.60;;;;;;490455;241;1402;-45
2021/06/15 06:48:18;;;;;;;;;;;19.40;56.50;;;;;;490656;241;1108;-45
2021/06/15 06:50:18;;;;;;;;;;;19.40;56.50;;;;;;490577;241;2256;-45
2021/06/15 06:52:19;;;;;;;;;;;19.40;56.50;;;;;;490554;241;2204;-45
2021/06/15 06:54:20;;;;;;;;;;;19.40;56.50;;;;;;490458;241;1133;-45
2021/06/15 06:56:22;;;;;;;;;;;19.40;56.50;;;;;;490384;241;1329;-45
2021/06/15 06:58:23;;;;;;;;;;;19.40;56.50;;;;;;490533;241;1451;-45
2021/06/15 07:00:24;;;;;;;;;;;19.40;56.60;;;;;;490483;241;1188;-45
2021/06/15 07:02:26;;;;;;;;;;;19.40;56.60;;;;;;490494;241;1345;-45
2021/06/15 07:04:27;;;;;;;;;;;19.40;56.60;;;;;;490526;241;1149;-45
2021/06/15 07:06:28;;;;;;;;;;;19.40;56.60;;;;;;490354;241;1218;-45
2021/06/15 07:08:29;;;;;;;;;;;19.40;56.50;;;;;;490561;241;1196;-45
2021/06/15 07:10:31;;;;;;;;;;;19.40;56.60;;;;;;490539;241;1127;-45
2021/06/15 07:12:32;;;;;;;;;;;19.40;56.50;;;;;;490521;241;2200;-45
2021/06/15 07:14:33;;;;;;;;;;;19.40;56.50;;;;;;490640;241;1120;-45
2021/06/15 07:16:35;;;;;;;;;;;19.40;56.40;;;;;;490548;241;1138;-45
2021/06/15 07:18:38;;;;;;;;;;;19.40;56.40;;;;;;490529;241;1192;-45
2021/06/15 07:20:38;;;;;;;;;;;19.40;56.30;;;;;;490297;241;2087;-45
2021/06/15 07:22:39;;;;;;;;;;;19.50;56.40;;;;;;490545;241;1137;-45
2021/06/15 07:24:40;;;;;;;;;;;19.50;56.50;;;;;;490560;241;1254;-45
2021/06/15 07:26:42;;;;;;;;;;;19.40;56.40;;;;;;490469;241;1199;-45
2021/06/15 07:28:43;;;;;;;;;;;19.50;56.40;;;;;;490594;241;1081;-45
2021/06/15 07:30:44;;;;;;;;;;;19.50;56.50;;;;;;490654;241;1294;-45
2021/06/15 07:32:46;;;;;;;;;;;19.50;56.40;;;;;;490581;241;2164;-45
2021/06/15 07:34:47;;;;;;;;;;;19.50;56.40;;;;;;490641;241;1162;-45
2021/06/15 07:36:48;;;;;;;;;;;19.60;56.40;;;;;;490536;241;1321;-45
2021/06/15 07:38:51;;;;;;;;;;;19.50;56.40;;;;;;490336;241;1126;-45
2021/06/15 07:40:52;;;;;;;;;;;19.50;56.40;;;;;;490133;241;1249;-45
2021/06/15 07:42:53;;;;;;;;;;;19.50;56.40;;;;;;490188;241;1106;-45
2021/06/15 07:44:55;;;;;;;;;;;19.50;56.50;;;;;;490361;241;1290;-45
2021/06/15 07:46:56;;;;;;;;;;;19.50;56.40;;;;;;490669;241;1209;-45
2021/06/15 07:48:57;;;;;;;;;;;19.50;56.40;;;;;;490801;241;1087;-45
2021/06/15 07:50:59;;;;;;;;;;;19.60;56.30;;;;;;490457;241;1283;-45
2021/06/15 07:53:00;;;;;;;;;;;19.60;56.30;;;;;;490386;241;2188;-45
2021/06/15 07:55:01;;;;;;;;;;;19.60;56.30;;;;;;490674;241;1246;-45
2021/06/15 07:57:03;;;;;;;;;;;19.50;56.30;;;;;;490662;241;1188;-45
2021/06/15 07:59:04;;;;;;;;;;;19.50;56.30;;;;;;491315;241;947;-45
2021/06/15 08:01:05;;;;;;;;;;;19.60;56.30;;;;;;490427;241;1085;-45
2021/06/15 08:03:07;;;;;;;;;;;19.60;56.30;;;;;;490491;241;1216;-45
2021/06/15 08:05:08;;;;;;;;;;;19.60;56.30;;;;;;490524;241;1153;-45
2021/06/15 08:07:09;;;;;;;;;;;19.50;56.30;;;;;;490374;241;1276;-45
2021/06/15 08:09:10;;;;;;;;;;;19.60;56.30;;;;;;490722;241;1226;-45
2021/06/15 08:11:12;;;;;;;;;;;19.50;56.30;;;;;;490452;241;1224;-45
2021/06/15 08:13:13;;;;;;;;;;;19.60;56.40;;;;;;490462;241;2192;-45
2021/06/15 08:15:15;;;;;;;;;;;19.60;56.20;;;;;;490286;241;1282;-45
2021/06/15 08:17:16;;;;;;;;;;;19.60;56.30;;;;;;490363;241;1410;-45
2021/06/15 08:19:17;;;;;;;;;;;19.60;56.30;;;;;;490641;241;1437;-45
2021/06/15 08:21:18;;;;;;;;;;;19.60;56.30;;;;;;490568;241;1357;-45
2021/06/15 08:23:20;;;;;;;;;;;19.60;56.40;;;;;;490704;241;1085;-45
2021/06/15 08:25:21;;;;;;;;;;;19.60;56.40;;;;;;490446;241;1302;-45
2021/06/15 08:27:23;;;;;;;;;;;19.60;56.50;;;;;;490580;241;1170;-45
2021/06/15 08:29:24;;;;;;;;;;;19.60;56.50;;;;;;490321;241;1229;-45
2021/06/15 08:31:25;;;;;;;;;;;19.60;56.50;;;;;;490480;241;1353;-45
2021/06/15 08:33:26;;;;;;;;;;;19.60;56.50;;;;;;490367;241;2153;-45
2021/06/15 08:35:28;;;;;;;;;;;19.60;56.50;;;;;;490493;241;1096;-45
2021/06/15 08:37:29;;;;;;;;;;;19.60;56.60;;;;;;490790;241;1192;-45
2021/06/15 08:39:30;;;;;;;;;;;19.60;56.70;;;;;;490373;241;1154;-45
2021/06/15 08:41:32;;;;;;;;;;;19.60;56.60;;;;;;490432;241;1291;-45
2021/06/15 08:43:33;;;;;;;;;;;19.60;56.50;;;;;;490866;241;1107;-45
2021/06/15 08:45:34;;;;;;;;;;;19.60;56.50;;;;;;490445;241;1274;-45
2021/06/15 08:47:36;;;;;;;;;;;19.60;56.60;;;;;;490581;241;1280;-45
2021/06/15 08:49:37;;;;;;;;;;;19.60;56.70;;;;;;490393;241;1070;-45
2021/06/15 08:51:38;;;;;;;;;;;19.60;56.70;;;;;;490208;241;1257;-45
2021/06/15 08:53:40;;;;;;;;;;;19.60;56.70;;;;;;490374;241;2201;-45
2021/06/15 08:55:41;;;;;;;;;;;19.60;56.70;;;;;;490342;241;1086;-45
2021/06/15 08:57:42;;;;;;;;;;;19.60;56.60;;;;;;490290;241;1103;-45
2021/06/15 08:59:44;;;;;;;;;;;19.70;56.70;;;;;;490219;241;1078;-45
2021/06/15 09:01:45;;;;;;;;;;;19.70;56.60;;;;;;490268;241;1237;-45
2021/06/15 09:03:46;;;;;;;;;;;19.70;56.60;;;;;;490284;241;1171;-45
2021/06/15 09:05:48;;;;;;;;;;;19.60;56.60;;;;;;490148;241;1360;-45
2021/06/15 09:07:49;;;;;;;;;;;19.70;56.60;;;;;;490163;241;1626;-45
2021/06/15 09:09:50;;;;;;;;;;;19.60;56.60;;;;;;490302;241;1136;-45
2021/06/15 09:11:51;;;;;;;;;;;19.70;56.60;;;;;;490285;241;1148;-45
2021/06/15 09:13:53;;;;;;;;;;;19.70;56.60;;;;;;490217;241;2180;-45
2021/06/15 09:15:54;;;;;;;;;;;19.70;56.60;;;;;;490109;241;1334;-45
2021/06/15 09:17:55;;;;;;;;;;;19.70;56.50;;;;;;490390;241;1088;-44
2021/06/15 09:19:57;;;;;;;;;;;19.70;56.50;;;;;;490356;241;1159;-45
2021/06/15 09:21:59;;;;;;;;;;;19.70;56.50;;;;;;490347;241;1239;-44
2021/06/15 09:24:00;;;;;;;;;;;19.70;56.60;;;;;;490369;241;1248;-44
2021/06/15 09:26:01;;;;;;;;;;;19.70;56.50;;;;;;489994;241;1137;-45
2021/06/15 09:28:02;;;;;;;;;;;19.70;56.60;;;;;;489900;241;1197;-45
2021/06/15 09:30:04;;;;;;;;;;;19.60;56.80;;;;;;490340;241;1153;-45
2021/06/15 09:32:05;;;;;;;;;;;19.60;56.70;;;;;;489633;241;1089;-45
2021/06/15 09:34:06;;;;;;;;;;;19.60;56.70;;;;;;490402;241;2203;-45
2021/06/15 09:36:08;;;;;;;;;;;19.60;56.80;;;;;;490422;241;1196;-45
2021/06/15 09:38:09;;;;;;;;;;;19.50;56.70;;;;;;490399;241;1106;-45
2021/06/15 09:40:10;;;;;;;;;;;19.60;56.90;;;;;;490400;241;1074;-45
2021/06/15 09:42:12;;;;;;;;;;;19.50;56.80;;;;;;490273;241;1088;-45
2021/06/15 09:44:13;;;;;;;;;;;19.60;56.90;;;;;;490380;241;1089;-45
2021/06/15 09:46:14;;;;;;;;;;;19.50;56.90;;;;;;490192;241;1066;-45
2021/06/15 09:48:16;;;;;;;;;;;19.50;56.80;;;;;;490216;241;1060;-45
2021/06/15 09:50:17;;;;;;;;;;;19.50;56.80;;;;;;490283;241;1044;-45
2021/06/15 09:52:18;;;;;;;;;;;19.50;56.90;;;;;;490306;241;1067;-45
2021/06/15 09:54:20;;;;;;;;;;;19.50;57.00;;;;;;479391;248;2142;-45
2021/06/15 09:56:21;;;;;;;;;;;19.50;57.00;;;;;;480090;244;1107;-45
2021/06/15 09:58:22;;;;;;;;;;;19.50;56.90;;;;;;479911;248;1178;-45
2021/06/15 10:00:24;;;;;;;;;;;19.50;56.90;;;;;;479864;248;1307;-45
2021/06/15 10:02:25;;;;;;;;;;;19.50;56.90;;;;;;479819;248;1188;-45
2021/06/15 10:04:27;;;;;;;;;;;19.40;56.90;;;;;;479944;248;1107;-45
2021/06/15 10:06:28;;;;;;;;;;;19.50;57.00;;;;;;486230;243;1345;-45
2021/06/15 10:08:30;;;;;;;;;;;19.40;56.90;;;;;;489896;241;1211;-45
2021/06/15 10:10:31;;;;;;;;;;;19.40;56.90;;;;;;490084;241;1113;-45
2021/06/15 10:12:33;;;;;;;;;;;19.50;56.90;;;;;;489575;241;1243;-45
2021/06/15 10:14:35;;;;;;;;;;;19.50;56.90;;;;;;490110;241;2196;-45
2021/06/15 10:16:36;;;;;;;;;;;19.40;56.90;;;;;;490322;241;1338;-45
2021/06/15 10:18:37;;;;;;;;;;;19.50;57.00;;;;;;491152;241;1079;-45
2021/06/15 10:20:38;;;;;;;;;;;19.40;56.90;;;;;;490523;241;1147;-45
2021/06/15 10:22:40;;;;;;;;;;;19.40;56.80;;;;;;490686;241;1362;-45
2021/06/15 10:24:41;;;;;;;;;;;19.50;56.90;;;;;;490833;241;1166;-44
2021/06/15 10:26:42;;;;;;;;;;;19.50;56.90;;;;;;490697;241;1168;-45
2021/06/15 10:28:44;;;;;;;;;;;19.50;56.80;;;;;;491134;241;1258;-45
2021/06/15 10:30:45;;;;;;;;;;;19.50;56.90;;;;;;491118;241;1195;-45
2021/06/15 10:32:46;;;;;;;;;;;19.40;56.80;;;;;;490626;241;1304;-45
2021/06/15 10:34:48;;;;;;;;;;;19.40;56.80;;;;;;490768;241;2208;-45
2021/06/15 10:36:50;;;;;;;;;;;19.40;56.90;;;;;;490671;241;1079;-45
2021/06/15 10:38:50;;;;;;;;;;;19.50;56.90;;;;;;490890;241;1360;-45
2021/06/15 10:40:52;;;;;;;;;;;19.40;56.80;;;;;;491098;241;1176;-45
2021/06/15 10:42:53;;;;;;;;;;;19.40;56.90;;;;;;490464;241;1231;-45
2021/06/15 10:44:54;;;;;;;;;;;19.50;56.90;;;;;;490367;241;1215;-45
2021/06/15 10:46:56;;;;;;;;;;;19.40;56.90;;;;;;490222;241;1299;-45
2021/06/15 10:48:57;;;;;;;;;;;19.40;56.90;;;;;;490639;241;1252;-45
2021/06/15 10:50:58;;;;;;;;;;;19.40;56.90;;;;;;490752;241;1369;-45
2021/06/15 10:53:00;;;;;;;;;;;19.40;56.90;;;;;;490673;241;1249;-45
2021/06/15 10:55:01;;;;;;;;;;;19.50;56.90;;;;;;490407;241;2212;-45
2021/06/15 10:57:02;;;;;;;;;;;19.40;56.90;;;;;;490289;241;1232;-45
2021/06/15 10:59:06;;;;;;;;;;;19.40;56.90;;;;;;491232;241;1091;-45
2021/06/15 11:01:05;;;;;;;;;;;19.40;56.90;;;;;;490096;241;1362;-45
2021/06/15 11:03:07;;;;;;;;;;;19.40;57.00;;;;;;490157;241;1372;-45
2021/06/15 11:05:08;;;;;;;;;;;19.40;56.90;;;;;;490433;241;1047;-45
2021/06/15 11:07:09;;;;;;;;;;;19.40;56.90;;;;;;490333;241;1382;-45
2021/06/15 11:09:13;;;;;;;;;;;19.40;57.00;;;;;;490333;241;1255;-45
2021/06/15 11:11:12;;;;;;;;;;;19.40;56.90;;;;;;490153;241;2040;-45
2021/06/15 11:13:13;;;;;;;;;;;19.40;56.90;;;;;;490410;241;1223;-45
2021/06/15 11:15:15;;;;;;;;;;;19.40;56.90;;;;;;490486;241;2192;-45
2021/06/15 11:17:18;;;;;;;;;;;19.40;56.90;;;;;;490315;241;1196;-45
2021/06/15 11:19:18;;;;;;;;;;;19.40;57.00;;;;;;491259;241;2209;-44
2021/06/15 11:21:19;;;;;;;;;;;19.40;57.00;;;;;;490684;241;2275;-45
2021/06/15 11:23:20;;;;;;;;;;;19.40;56.90;;;;;;490611;241;1068;-45
2021/06/15 11:25:21;;;;;;;;;;;19.40;56.90;;;;;;490275;241;1167;-45
2021/06/15 11:27:24;;;;;;;;;;;19.40;56.90;;;;;;490273;241;1278;-45
2021/06/15 11:29:25;;;;;;;;;;;19.40;56.80;;;;;;490694;241;1222;-45
2021/06/15 11:31:26;;;;;;;;;;;19.40;56.90;;;;;;490607;241;1266;-45
2021/06/15 11:33:28;;;;;;;;;;;19.40;56.80;;;;;;490763;241;1331;-45
2021/06/15 11:35:28;;;;;;;;;;;19.40;56.80;;;;;;490315;241;2235;-45
2021/06/15 11:37:32;;;;;;;;;;;19.40;56.80;;;;;;490229;241;1289;-45
2021/06/15 11:39:32;;;;;;;;;;;19.40;56.90;;;;;;490573;241;1891;-45
2021/06/15 11:41:32;;;;;;;;;;;19.40;56.90;;;;;;490386;241;1505;-45
2021/06/15 11:43:34;;;;;;;;;;;19.40;56.90;;;;;;490562;241;1216;-45
2021/06/15 11:45:35;;;;;;;;;;;19.40;56.90;;;;;;490357;241;1124;-45
2021/06/15 11:47:37;;;;;;;;;;;19.40;56.90;;;;;;490609;241;1634;-45
2021/06/15 11:49:38;;;;;;;;;;;19.40;56.80;;;;;;490514;241;1087;-45
2021/06/15 11:51:39;;;;;;;;;;;19.40;56.80;;;;;;490262;241;1388;-45
2021/06/15 11:53:41;;;;;;;;;;;19.40;56.80;;;;;;490216;241;1058;-45
2021/06/15 11:55:42;;;;;;;;;;;19.40;56.80;;;;;;490119;241;2212;-45
2021/06/15 11:57:43;;;;;;;;;;;19.40;56.90;;;;;;490221;241;1380;-45
2021/06/15 11:59:45;;;;;;;;;;;19.40;56.90;;;;;;490324;241;1092;-45
2021/06/15 12:01:46;;;;;;;;;;;19.40;56.90;;;;;;490144;241;1150;-45